Terminal Aerodrome Forecast
Issued by NWS

Home | Current Version | Previous Version | Text Only | Print | Product List | Glossary On
Versions: 1 2 3 4 5 6 7 8 9 10 11 12 13 14 15 16 17 18 19 20 21 22 23 24 25 26
497
FTUS46 KSEW 302102 AAA
TAFSEA
TAF AMD
KSEA 302102Z 3021/3124 36009KT P6SM SCT250
     FM310500 03009KT P6SM SKC
     FM311900 33006KT P6SM SKC=

USA.gov is the U.S. government's official web portal to all federal, state and local government web resources and services.